Time;durP1;ratioP1;P1;durP2;ratioP2;P2;SDS_P1;SDS_P2;PMS_P1;PMS_P2;Temp;Humidity;BMP_temperature;BMP_pressure;BME280_temperature;BME280_humidity;BME280_pressure;Samples;Min_cycle;Max_cycle;Signal;HPM_P1;HPM_P2
2021/01/19 00:01:07;;;;;;;47.38;21.08;;;;;;;-3.83;91.18;98836.66;5093959;28;20032;-76
2021/01/19 00:03:32;;;;;;;41.38;19.27;;;;;;;-3.87;91.18;98833.53;5093671;28;20020;-75
2021/01/19 00:05:58;;;;;;;48.85;21.00;;;;;;;-3.81;91.48;98840.81;5092160;28;20028;-76
2021/01/19 00:08:24;;;;;;;42.22;21.15;;;;;;;-3.76;90.87;98831.41;5093390;28;20031;-76
2021/01/19 00:10:49;;;;;;;47.03;18.15;;;;;;;-3.88;91.17;98825.66;5092568;28;20032;-75
2021/01/19 00:13:19;;;;;;;39.17;19.83;;;;;;;-3.97;91.43;98824.09;5075248;28;20042;-74
2021/01/19 00:15:47;;;;;;;40.08;21.58;;;;;;;-3.80;91.43;98809.56;5093383;28;20036;-75
2021/01/19 00:18:12;;;;;;;46.58;19.77;;;;;;;-3.75;90.99;98817.84;5093245;28;20090;-75
2021/01/19 00:20:37;;;;;;;47.20;19.60;;;;;;;-3.70;90.66;98814.66;5093117;28;20024;-75
2021/01/19 00:23:03;;;;;;;46.25;20.65;;;;;;;-3.59;90.57;98823.03;5093195;28;20039;-76
2021/01/19 00:25:28;;;;;;;38.15;19.80;;;;;;;-3.55;90.02;98813.63;5092731;28;20136;-76
2021/01/19 00:27:53;;;;;;;37.45;18.33;;;;;;;-3.57;90.06;98815.66;5092942;28;20046;-77
2021/01/19 00:30:19;;;;;;;41.90;18.50;;;;;;;-3.58;90.03;98816.69;5093446;28;20099;-76
2021/01/19 00:32:45;;;;;;;40.83;21.33;;;;;;;-3.69;90.02;98824.31;5093065;28;20070;-75
2021/01/19 00:35:10;;;;;;;;;;;;;;;-3.61;89.93;98830.41;5093627;28;20016;-75
2021/01/19 00:37:36;;;;;;;33.08;17.45;;;;;;;-3.71;89.77;98837.88;5092975;28;19900;-77
2021/01/19 00:40:01;;;;;;;50.63;21.75;;;;;;;-3.81;90.26;98839.97;5091807;28;20024;-76
2021/01/19 00:42:26;;;;;;;41.10;19.90;;;;;;;-3.77;90.17;98825.25;5091255;28;20030;-76
2021/01/19 00:44:52;;;;;;;35.92;19.38;;;;;;;-3.75;90.29;98833.88;5092839;28;20088;-76
2021/01/19 00:47:17;;;;;;;38.05;16.92;;;;;;;-3.73;89.78;98826.53;5091757;28;20540;-76
2021/01/19 00:49:43;;;;;;;34.83;16.77;;;;;;;-3.70;90.04;98823.50;5092859;28;20028;-76
2021/01/19 00:52:08;;;;;;;38.63;16.25;;;;;;;-3.59;89.36;98825.72;5092967;28;20471;-76
2021/01/19 00:54:33;;;;;;;32.92;18.45;;;;;;;-3.58;89.03;98829.22;5092732;28;20028;-78
2021/01/19 00:56:59;;;;;;;28.38;16.40;;;;;;;-3.59;89.03;98832.88;5095314;28;20145;-74
2021/01/19 00:59:24;;;;;;;40.15;19.75;;;;;;;-3.67;89.39;98847.19;5112589;28;20027;-76
2021/01/19 01:01:49;;;;;;;39.67;20.20;;;;;;;-3.64;89.22;98838.81;5112426;28;20062;-77
2021/01/19 01:04:15;;;;;;;31.50;15.30;;;;;;;-3.60;89.58;98832.06;5112327;28;20032;-74
2021/01/19 01:06:41;;;;;;;41.08;17.50;;;;;;;-3.52;88.81;98818.63;5112600;28;20062;-75
2021/01/19 01:09:07;;;;;;;33.30;17.48;;;;;;;-3.61;88.42;98818.88;5112740;28;20057;-75
2021/01/19 01:11:50;;;;;;;38.20;19.25;;;;;;;-3.35;88.54;98835.28;5112999;28;20024;-74
2021/01/19 01:14:16;;;;;;;38.28;18.27;;;;;;;-3.36;87.78;98834.47;5112575;28;20049;-74
2021/01/19 01:16:41;;;;;;;45.38;20.20;;;;;;;-3.59;88.17;98811.50;5112858;28;20027;-76
2021/01/19 01:19:08;;;;;;;36.10;15.65;;;;;;;-3.62;88.65;98820.72;5112574;28;20142;-74
2021/01/19 01:21:37;;;;;;;38.88;18.05;;;;;;;-3.53;88.66;98824.97;5112552;28;20020;-76
2021/01/19 01:24:05;;;;;;;32.03;17.02;;;;;;;-3.66;88.74;98816.75;5112381;28;20028;-76
2021/01/19 01:26:30;;;;;;;31.83;16.58;;;;;;;-3.55;89.14;98816.31;5112412;28;20044;-75
2021/01/19 01:28:56;;;;;;;35.72;17.35;;;;;;;-3.54;88.52;98799.25;5112417;28;20160;-77
2021/01/19 01:31:21;;;;;;;28.30;14.82;;;;;;;-3.44;88.47;98815.00;5112451;28;20056;-76
2021/01/19 01:33:48;;;;;;;39.75;18.88;;;;;;;-3.43;88.42;98822.03;5112199;28;20099;-76
2021/01/19 01:36:14;;;;;;;38.40;19.27;;;;;;;-3.58;88.63;98811.34;5112327;28;20031;-75
2021/01/19 01:38:39;;;;;;;44.95;19.33;;;;;;;-3.71;89.05;98819.16;5110873;28;20021;-75
2021/01/19 01:41:25;;;;;;;39.70;18.38;;;;;;;-3.80;89.36;98825.59;5112765;28;20495;-76
2021/01/19 01:43:50;;;;;;;41.10;18.85;;;;;;;-3.83;89.43;98810.78;5110159;28;20028;-76
2021/01/19 01:46:17;;;;;;;41.40;18.48;;;;;;;-3.81;89.29;98819.44;5112020;28;20031;-74
2021/01/19 01:48:44;;;;;;;41.10;16.85;;;;;;;-3.76;89.50;98810.03;5111890;28;20030;-77
2021/01/19 01:51:10;;;;;;;36.08;16.92;;;;;;;-3.74;88.94;98808.00;5111599;28;20020;-75
2021/01/19 01:53:40;;;;;;;43.42;20.40;;;;;;;-3.82;90.00;98799.06;5112455;28;20028;-76
2021/01/19 01:56:07;;;;;;;46.60;19.58;;;;;;;-3.84;89.39;98800.25;5111891;28;20497;-76
2021/01/19 01:58:33;;;;;;;42.15;18.17;;;;;;;-3.77;89.90;98798.53;5111665;28;20111;-76
2021/01/19 02:00:59;;;;;;;33.35;16.73;;;;;;;-3.77;89.19;98787.84;5111851;28;20048;-76
2021/01/19 02:03:24;;;;;;;40.42;17.88;;;;;;;-3.84;89.67;98795.75;5111777;28;20020;-76
2021/01/19 02:05:50;;;;;;;32.10;18.05;;;;;;;-3.80;89.80;98773.00;5111570;28;20169;-76
2021/01/19 02:08:21;;;;;;;38.42;16.17;;;;;;;-3.74;89.74;98787.47;5110409;28;20393;-74
2021/01/19 02:10:57;;;;;;;44.45;19.10;;;;;;;-3.74;89.37;98790.13;5112011;28;20024;-76
2021/01/19 02:13:32;;;;;;;40.28;19.38;;;;;;;-3.92;89.60;98801.19;5111118;28;20106;-74
2021/01/19 02:16:23;;;;;;;43.97;21.88;;;;;;;-4.02;89.81;98797.13;5109098;28;20031;-75
2021/01/19 02:19:37;;;;;;;35.88;18.05;;;;;;;-4.15;90.04;98799.56;5121029;27;20059;-76
2021/01/19 02:22:09;;;;;;;31.42;18.02;;;;;;;-4.06;90.28;98793.13;5109628;28;20076;-76
2021/01/19 02:25:03;;;;;;;35.35;18.13;;;;;;;-3.96;89.62;98791.03;5111215;28;20035;-75
2021/01/19 02:28:10;;;;;;;35.30;18.13;;;;;;;-4.24;90.01;98784.63;5109685;28;20040;-75
2021/01/19 02:30:45;;;;;;;43.53;18.90;;;;;;;-4.41;91.00;98784.78;5096848;28;20114;-75
2021/01/19 02:33:32;;;;;;;36.22;17.70;;;;;;;-4.42;91.45;98784.97;5110829;28;20035;-75
2021/01/19 02:36:55;;;;;;;39.33;17.83;;;;;;;-4.38;92.03;98776.41;5110994;28;20035;-76
2021/01/19 02:39:39;;;;;;;35.28;18.15;;;;;;;-4.19;91.20;98768.88;5048381;28;20024;-76
2021/01/19 02:42:08;;;;;;;44.25;17.88;;;;;;;-4.10;90.79;98775.84;5048709;28;20029;-76
2021/01/19 02:44:37;;;;;;;35.58;17.00;;;;;;;-4.21;90.31;98766.41;5093724;28;20484;-76
2021/01/19 02:47:03;;;;;;;34.67;17.67;;;;;;;-4.25;90.49;98761.59;5111074;28;20027;-75
2021/01/19 02:49:29;;;;;;;37.50;18.83;;;;;;;-4.41;90.84;98773.25;5111124;28;20095;-75
2021/01/19 02:51:57;;;;;;;34.63;17.80;;;;;;;-4.52;90.92;98765.72;5111501;28;20058;-76
2021/01/19 02:54:23;;;;;;;36.38;15.98;;;;;;;-4.45;91.25;98748.78;5111816;28;20034;-76
2021/01/19 02:57:00;;;;;;;36.50;17.02;;;;;;;-4.47;91.42;98752.63;5098369;28;20020;-76
2021/01/19 02:59:55;;;;;;;34.90;16.27;;;;;;;-4.47;91.33;98757.97;5090356;28;20036;-76
2021/01/19 03:02:26;;;;;;;33.47;16.40;;;;;;;-4.59;91.64;98759.41;5091172;28;20546;-76
2021/01/19 03:04:53;;;;;;;34.97;15.65;;;;;;;-4.61;91.82;98759.63;5091844;28;20148;-76
2021/01/19 03:07:21;;;;;;;37.95;17.10;;;;;;;-4.47;92.27;98758.81;5091935;28;20107;-76
2021/01/19 03:09:48;;;;;;;36.08;17.38;;;;;;;-4.60;92.59;98753.25;5092356;28;20055;-75
2021/01/19 03:12:15;;;;;;;39.30;17.33;;;;;;;-4.60;92.76;98761.25;5093405;28;20118;-76
2021/01/19 03:14:42;;;;;;;36.60;16.70;;;;;;;-4.59;93.18;98760.25;5093459;28;20040;-81
2021/01/19 03:17:08;;;;;;;34.63;18.33;;;;;;;-4.66;92.25;98767.31;5095783;28;20538;-81
2021/01/19 03:19:45;;;;;;;47.47;18.10;;;;;;;-4.72;92.59;98770.69;5095076;28;20061;-76
2021/01/19 03:22:11;;;;;;;38.33;19.95;;;;;;;-4.79;92.85;98780.41;5094248;28;20583;-80
2021/01/19 03:24:37;;;;;;;33.70;17.55;;;;;;;-4.81;92.50;98777.09;5096252;28;20068;-76
2021/01/19 03:27:03;;;;;;;39.80;18.02;;;;;;;-4.83;92.26;98768.44;5098807;28;20165;-76
2021/01/19 03:29:29;;;;;;;30.65;16.50;;;;;;;-5.05;92.48;98780.78;5099081;28;20043;-76
2021/01/19 03:31:54;;;;;;;31.73;15.52;;;;;;;-5.17;93.32;98778.69;5094940;28;20028;-76
2021/01/19 03:34:19;;;;;;;28.65;13.93;;;;;;;-5.11;93.87;98791.31;5094062;28;20028;-76
2021/01/19 03:36:45;;;;;;;39.58;19.08;;;;;;;-5.06;93.25;98783.59;5094560;28;20032;-75
2021/01/19 03:39:11;;;;;;;38.42;16.73;;;;;;;-5.02;92.93;98795.56;5092871;28;20016;-75
2021/01/19 03:41:37;;;;;;;28.63;13.77;;;;;;;-5.04;93.15;98797.56;5094284;28;20028;-76
2021/01/19 03:44:03;;;;;;;31.38;14.88;;;;;;;-5.04;93.42;98803.75;5094177;28;20471;-77
2021/01/19 03:46:29;;;;;;;30.50;15.50;;;;;;;-4.98;93.34;98802.22;5094222;28;20043;-76
2021/01/19 03:48:55;;;;;;;39.85;15.55;;;;;;;-4.93;93.23;98795.34;5094561;28;20024;-76
2021/01/19 03:51:23;;;;;;;38.75;16.10;;;;;;;-4.89;92.80;98793.16;5096046;28;20397;-76
2021/01/19 03:53:49;;;;;;;40.55;14.95;;;;;;;-4.86;92.83;98790.16;5094188;28;20024;-75
2021/01/19 03:56:14;;;;;;;36.88;16.08;;;;;;;-5.00;92.65;98777.56;5093296;28;20058;-74
2021/01/19 03:58:39;;;;;;;27.77;14.63;;;;;;;-4.85;92.80;98770.44;5094000;28;20024;-75
2021/01/19 04:01:05;;;;;;;30.77;13.80;;;;;;;-4.92;92.58;98769.53;5092552;28;20469;-75
2021/01/19 04:03:30;;;;;;;29.10;14.15;;;;;;;-5.01;93.04;98762.59;5093552;28;20035;-75
2021/01/19 04:05:56;;;;;;;35.05;14.32;;;;;;;-5.02;92.75;98744.91;5093640;28;20035;-76
2021/01/19 04:08:21;;;;;;;27.75;14.38;;;;;;;-5.00;92.91;98741.06;5093309;28;20031;-75
2021/01/19 04:10:48;;;;;;;28.30;15.23;;;;;;;-4.91;92.47;98761.31;5092554;28;20085;-77
2021/01/19 04:13:18;;;;;;;35.75;19.33;;;;;;;-5.10;92.80;98776.94;5093810;28;20032;-78
2021/01/19 04:15:45;;;;;;;30.55;16.13;;;;;;;-5.20;93.41;98781.69;5093983;28;20024;-76
2021/01/19 04:18:10;;;;;;;27.30;13.93;;;;;;;-5.06;93.57;98780.94;5092012;28;20157;-75
2021/01/19 04:20:36;;;;;;;32.72;15.93;;;;;;;-5.06;93.19;98757.78;5093114;28;20111;-77
2021/01/19 04:23:02;;;;;;;38.60;15.52;;;;;;;-5.13;92.36;98758.63;5093559;28;20103;-74
2021/01/19 04:25:27;;;;;;;32.17;14.82;;;;;;;-5.21;92.38;98758.69;5093177;28;20048;-76
2021/01/19 04:27:52;;;;;;;26.00;14.63;;;;;;;-5.25;92.95;98771.53;5093658;28;20519;-77
2021/01/19 04:30:18;;;;;;;34.25;17.95;;;;;;;-5.18;92.68;98763.69;5093801;28;20023;-75
2021/01/19 04:32:46;;;;;;;25.55;14.88;;;;;;;-5.03;92.96;98767.25;5093519;28;20099;-75
2021/01/19 04:35:11;;;;;;;25.35;14.38;;;;;;;-5.07;92.88;98776.59;5092862;28;20032;-74
2021/01/19 04:37:37;;;;;;;34.13;16.77;;;;;;;-5.10;92.92;98779.63;5093120;28;20030;-74
2021/01/19 04:40:04;;;;;;;25.58;14.40;;;;;;;-5.12;93.27;98785.13;5092001;28;20024;-76
2021/01/19 04:42:33;;;;;;;31.85;17.83;;;;;;;-5.01;93.11;98791.91;5092690;28;20481;-76
2021/01/19 04:45:04;;;;;;;29.27;14.38;;;;;;;-5.14;93.00;98784.50;5093222;28;20032;-75
2021/01/19 04:47:32;;;;;;;40.22;18.30;;;;;;;-5.12;92.96;98778.97;5092064;28;20032;-76
2021/01/19 04:49:59;;;;;;;30.42;17.38;;;;;;;-5.20;93.19;98774.50;5091997;28;20486;-76
2021/01/19 04:52:28;;;;;;;41.70;18.23;;;;;;;-5.32;92.93;98777.72;5093154;28;20032;-75
2021/01/19 04:55:04;;;;;;;36.63;18.15;;;;;;;-5.39;93.40;98774.13;5092297;28;20021;-75
2021/01/19 04:57:32;;;;;;;35.33;17.45;;;;;;;-5.30;93.46;98779.25;5093450;28;20086;-76
2021/01/19 05:00:03;;;;;;;37.15;17.73;;;;;;;-5.30;93.40;98781.06;5093916;28;20036;-77
2021/01/19 05:03:01;;;;;;;36.92;18.15;;;;;;;-5.54;92.83;98779.34;5095024;28;20059;-80
2021/01/19 05:05:36;;;;;;;35.40;19.00;;;;;;;-5.61;93.22;98784.56;5073717;28;20048;-76
2021/01/19 05:08:19;;;;;;;30.02;16.42;;;;;;;-5.41;93.37;98791.13;5098252;28;20028;-78
2021/01/19 05:10:54;;;;;;;43.03;18.95;;;;;;;-5.52;92.68;98772.88;5100100;28;20115;-78
2021/01/19 05:13:42;;;;;;;33.25;16.88;;;;;;;-5.61;92.82;98789.88;5097178;28;20389;-78
2021/01/19 05:16:13;;;;;;;29.88;16.70;;;;;;;-5.50;93.38;98781.50;5099158;28;20024;-77
2021/01/19 05:18:40;;;;;;;32.17;16.05;;;;;;;-5.54;93.63;98774.00;5094172;28;20031;-77
2021/01/19 05:21:07;;;;;;;35.10;17.98;;;;;;;-5.50;93.12;98781.50;5092637;28;20024;-74
2021/01/19 05:23:33;;;;;;;34.20;14.85;;;;;;;-5.52;93.14;98791.50;5092152;28;20031;-75
2021/01/19 05:25:59;;;;;;;39.03;17.70;;;;;;;-5.63;93.84;98789.22;5091645;28;20056;-76
2021/01/19 05:28:37;;;;;;;38.03;17.95;;;;;;;-5.58;93.85;98784.22;5092287;28;20111;-76
2021/01/19 05:31:06;;;;;;;30.70;14.50;;;;;;;-5.53;93.52;98803.16;5092221;28;20024;-76
2021/01/19 05:33:35;;;;;;;32.58;17.35;;;;;;;-5.64;93.84;98800.06;5091864;28;20023;-74
2021/01/19 05:36:08;;;;;;;35.60;17.00;;;;;;;-5.61;93.83;98810.34;5090374;28;20077;-75
2021/01/19 05:38:48;;;;;;;33.78;14.43;;;;;;;-5.59;94.38;98803.84;5091797;28;20036;-74
2021/01/19 05:41:35;;;;;;;27.55;16.25;;;;;;;-5.51;93.63;98800.31;5091090;28;20115;-76
2021/01/19 05:44:22;;;;;;;27.85;13.38;;;;;;;-5.59;93.64;98785.19;5090331;28;20503;-75
2021/01/19 05:47:01;;;;;;;26.95;16.35;;;;;;;-5.54;93.57;98785.50;5089337;28;20512;-78
2021/01/19 05:49:32;;;;;;;38.70;15.85;;;;;;;-5.62;93.96;98803.34;5091840;28;20016;-75
2021/01/19 05:51:59;;;;;;;43.17;14.90;;;;;;;-5.56;93.60;98797.34;5104667;27;20024;-76
2021/01/19 05:54:44;;;;;;;25.70;13.45;;;;;;;-5.39;92.82;98804.28;5110683;28;20024;-75
2021/01/19 05:57:28;;;;;;;34.17;15.43;;;;;;;-5.65;92.82;98798.38;5110607;28;20152;-74
2021/01/19 05:59:55;;;;;;;30.05;15.43;;;;;;;-5.76;93.13;98814.75;5113279;28;20365;-74
2021/01/19 06:02:23;;;;;;;25.85;14.70;;;;;;;-5.82;93.85;98813.56;5114463;28;20023;-76
2021/01/19 06:04:52;;;;;;;29.95;14.90;;;;;;;-5.83;94.35;98811.94;5113306;28;20043;-75
2021/01/19 06:07:23;;;;;;;18.00;13.90;;;;;;;-5.87;94.60;98807.13;5112951;27;20031;-75
2021/01/19 06:09:49;;;;;;;37.65;14.55;;;;;;;-5.69;94.14;98797.06;5113706;28;20119;-76
2021/01/19 06:12:15;;;;;;;26.55;13.77;;;;;;;-5.69;93.76;98802.38;5112033;28;20018;-78
2021/01/19 06:14:51;;;;;;;32.40;13.60;;;;;;;-5.64;93.81;98806.19;5109980;28;20024;-76
2021/01/19 06:17:21;;;;;;;24.40;14.40;;;;;;;-5.69;93.97;98805.88;5111307;28;20060;-75
2021/01/19 06:19:49;;;;;;;33.75;14.57;;;;;;;-5.66;93.74;98813.53;5111384;28;20279;-76
2021/01/19 06:22:16;;;;;;;37.10;15.65;;;;;;;-5.73;93.54;98811.75;5105082;28;20016;-75
2021/01/19 06:24:49;;;;;;;31.02;12.70;;;;;;;-5.58;93.67;98826.84;5100109;28;20043;-76
2021/01/19 06:27:21;;;;;;;35.28;16.05;;;;;;;-5.51;93.34;98826.94;5098336;28;20032;-75
2021/01/19 06:29:47;;;;;;;25.80;12.70;;;;;;;-5.50;93.30;98832.13;5098891;28;20076;-76
2021/01/19 06:32:15;;;;;;;30.00;16.02;;;;;;;-5.59;92.83;98819.84;5096712;28;20035;-77
2021/01/19 06:34:41;;;;;;;35.88;15.63;;;;;;;-5.54;92.96;98822.81;5094713;28;20024;-76
2021/01/19 06:37:08;;;;;;;29.33;14.88;;;;;;;-5.53;92.85;98819.16;5096909;28;20020;-75
2021/01/19 06:39:42;;;;;;;36.97;14.45;;;;;;;-5.62;92.45;98817.50;5100903;28;20024;-76
2021/01/19 06:42:16;;;;;;;30.95;15.35;;;;;;;-5.73;91.93;98804.56;5100580;28;20074;-76
2021/01/19 06:44:44;;;;;;;27.05;13.73;;;;;;;-5.83;91.80;98805.75;5103531;28;20028;-76
2021/01/19 06:47:10;;;;;;;32.90;15.40;;;;;;;-5.71;92.00;98812.38;5090609;28;20047;-79
2021/01/19 06:49:37;;;;;;;32.22;14.68;;;;;;;-5.65;91.63;98811.69;5101312;28;20032;-74
2021/01/19 06:52:11;;;;;;;33.38;15.82;;;;;;;-5.57;91.42;98812.50;5105140;28;20031;-76
2021/01/19 06:54:55;;;;;;;37.40;15.82;;;;;;;-5.44;91.19;98802.13;5098149;28;20114;-76
2021/01/19 06:57:30;;;;;;;24.77;14.50;;;;;;;-5.29;90.90;98802.22;5100460;28;20070;-76
2021/01/19 07:00:08;;;;;;;32.67;18.00;;;;;;;-5.26;90.20;98801.06;5103325;28;20030;-82
2021/01/19 07:02:37;;;;;;;36.88;15.23;;;;;;;-5.29;90.15;98804.88;5099172;28;20028;-81
2021/01/19 07:05:08;;;;;;;37.33;17.23;;;;;;;-5.25;89.59;98802.69;5092986;28;20085;-76
2021/01/19 07:07:44;;;;;;;34.95;17.35;;;;;;;-5.10;88.79;98808.94;5098456;28;20038;-76
2021/01/19 07:10:20;;;;;;;34.90;18.92;;;;;;;-5.01;88.21;98805.25;5112299;28;20039;-76
2021/01/19 07:13:05;;;;;;;;;;;;;;;-4.83;87.26;98811.13;5107012;28;20450;-75
2021/01/19 07:15:58;;;;;;;34.25;18.00;;;;;;;-4.39;85.65;98804.13;5115267;28;19912;-78
2021/01/19 07:18:42;;;;;;;38.72;19.63;;;;;;;-4.32;85.02;98805.06;5106356;28;20613;-77
2021/01/19 07:21:13;;;;;;;38.03;17.63;;;;;;;-3.98;83.89;98801.88;5091818;28;20055;-77
2021/01/19 07:23:44;;;;;;;36.85;17.60;;;;;;;-3.82;83.43;98801.72;5090885;28;20029;-75
2021/01/19 07:26:18;;;;;;;83.07;30.42;;;;;;;-3.95;83.41;98800.72;5090774;28;20063;-77
2021/01/19 07:28:44;;;;;;;82.07;34.88;;;;;;;-3.86;83.16;98800.47;5100439;28;20455;-76
2021/01/19 07:31:11;;;;;;;73.43;31.40;;;;;;;-3.32;81.60;98792.94;5100899;28;20099;-75
2021/01/19 07:33:43;;;;;;;80.13;31.55;;;;;;;-3.25;80.30;98801.06;5100379;28;20032;-76
2021/01/19 07:36:17;;;;;;;52.75;26.88;;;;;;;-2.87;79.53;98807.06;5099275;28;21347;-74
2021/01/19 07:38:43;;;;;;;56.97;25.85;;;;;;;-2.58;78.30;98798.13;5104528;28;20021;-76
2021/01/19 07:41:11;;;;;;;53.53;23.63;;;;;;;-2.21;77.09;98793.31;5101556;28;20026;-74
2021/01/19 07:43:41;;;;;;;71.72;27.63;;;;;;;-1.71;74.66;98796.78;5101846;28;20093;-74
2021/01/19 07:46:07;;;;;;;111.95;44.58;;;;;;;-1.94;75.48;98806.94;5100429;28;20039;-76
2021/01/19 07:48:35;;;;;;;61.60;27.42;;;;;;;-2.04;75.48;98793.88;5096419;28;20028;-75
2021/01/19 07:51:16;;;;;;;63.05;25.65;;;;;;;-2.30;76.40;98786.44;5097391;28;20028;-78
2021/01/19 07:53:49;;;;;;;47.13;24.27;;;;;;;-2.28;76.59;98789.75;5099609;28;20031;-76
2021/01/19 07:56:28;;;;;;;44.08;21.77;;;;;;;-2.28;76.82;98789.75;5100687;28;20028;-79
2021/01/19 07:58:54;;;;;;;36.75;19.42;;;;;;;-2.11;75.94;98797.50;5099967;28;20024;-81
2021/01/19 08:01:29;;;;;;;39.92;20.45;;;;;;;-1.96;75.23;98796.41;5096955;28;20027;-81
2021/01/19 08:04:06;;;;;;;35.10;17.55;;;;;;;-1.75;75.18;98785.59;5098963;28;20038;-80
2021/01/19 08:06:32;;;;;;;38.45;19.88;;;;;;;-2.12;76.01;98779.75;5100060;28;20165;-84
2021/01/19 08:09:16;;;;;;;29.27;17.73;;;;;;;-2.02;76.06;98785.63;5099503;28;20114;-80
2021/01/19 08:11:44;;;;;;;32.83;18.02;;;;;;;-2.14;76.53;98793.38;5103986;28;20111;-86
2021/01/19 08:14:10;;;;;;;35.83;20.40;;;;;;;-2.22;76.38;98778.25;5112304;28;20476;-78
2021/01/19 08:16:37;;;;;;;38.88;20.52;;;;;;;-2.08;76.81;98787.25;5090864;28;20032;-81
2021/01/19 08:19:13;;;;;;;34.67;21.17;;;;;;;-2.05;76.57;98786.00;5091472;28;20032;-81
2021/01/19 08:21:52;;;;;;;;;;;;;;;-2.32;77.89;98790.34;5091219;28;20110;-78
2021/01/19 08:24:24;;;;;;;38.25;20.48;;;;;;;-2.69;79.74;98785.25;5093405;28;19927;-77
2021/01/19 08:26:51;;;;;;;30.85;19.30;;;;;;;-2.53;79.83;98783.13;5091813;28;20494;-79
2021/01/19 08:29:20;;;;;;;29.38;17.08;;;;;;;-2.28;79.46;98778.19;5091017;28;20027;-82
2021/01/19 08:31:58;;;;;;;31.60;19.52;;;;;;;-2.19;78.92;98780.53;5105343;28;20484;-79
2021/01/19 08:34:25;;;;;;;33.55;16.38;;;;;;;-2.08;78.47;98764.97;5111044;28;20806;-78
2021/01/19 08:36:51;;;;;;;30.48;18.55;;;;;;;-1.89;77.56;98780.38;5110364;28;20039;-81
2021/01/19 08:39:17;;;;;;;26.17;14.43;;;;;;;-2.03;78.17;98797.34;5096511;28;20134;-83
2021/01/19 08:41:45;;;;;;;36.22;18.85;;;;;;;-2.02;78.51;98799.84;5103163;28;20043;-81
2021/01/19 08:44:12;;;;;;;34.60;18.45;;;;;;;-2.00;78.37;98800.47;5111595;28;20028;-81
2021/01/19 08:46:39;;;;;;;32.83;19.40;;;;;;;-2.19;79.05;98807.34;5110181;28;20032;-86
2021/01/19 08:49:08;;;;;;;30.70;17.45;;;;;;;-2.29;79.13;98812.19;5092089;28;20024;-78
2021/01/19 08:51:34;;;;;;;28.77;15.95;;;;;;;-2.37;79.43;98809.66;5090379;28;20106;-79
2021/01/19 08:54:01;;;;;;;33.03;17.35;;;;;;;-1.85;78.67;98809.25;5090120;28;20020;-80
2021/01/19 08:56:28;;;;;;;30.67;15.57;;;;;;;-2.01;80.85;98814.09;5094160;28;20028;-83
2021/01/19 08:58:53;;;;;;;30.23;16.45;;;;;;;-1.83;78.81;98795.66;5099567;28;20109;-83
2021/01/19 09:01:19;;;;;;;31.38;17.63;;;;;;;-2.03;78.97;98792.81;5097543;28;20113;-82
2021/01/19 09:03:55;;;;;;;36.67;20.83;;;;;;;-2.41;80.80;98792.31;5101146;28;20100;-80
2021/01/19 09:06:21;;;;;;;39.08;20.52;;;;;;;-2.56;81.80;98809.44;5101101;28;20501;-83
2021/01/19 09:08:56;;;;;;;35.40;19.40;;;;;;;-2.66;82.31;98792.91;5103145;28;20031;-81
2021/01/19 09:11:25;;;;;;;33.75;17.67;;;;;;;-2.57;82.22;98800.63;5101727;28;20024;-84
2021/01/19 09:13:51;;;;;;;35.58;18.88;;;;;;;-2.38;81.46;98789.25;5101786;28;20030;-84
2021/01/19 09:16:24;;;;;;;31.20;17.50;;;;;;;-1.71;79.20;98810.19;5097886;28;20016;-75
2021/01/19 09:18:56;;;;;;;36.30;17.98;;;;;;;-1.29;77.32;98809.19;5097591;28;20547;-78
2021/01/19 09:21:23;;;;;;;28.20;17.13;;;;;;;-1.01;75.82;98791.16;5096486;28;20040;-80
2021/01/19 09:23:49;;;;;;;25.45;16.23;;;;;;;-0.77;75.07;98793.28;5101158;28;20019;-81
2021/01/19 09:26:15;;;;;;;31.27;15.57;;;;;;;-0.65;74.69;98790.84;5091107;28;20048;-84
2021/01/19 09:28:40;;;;;;;;;;;;;;;-0.26;73.51;98807.03;5098159;28;20036;-80
2021/01/19 09:31:19;;;;;;;26.92;15.23;;;;;;;-0.30;73.18;98811.16;5102991;28;19915;-87
2021/01/19 09:33:47;;;;;;;24.90;13.80;;;;;;;-0.17;72.94;98813.88;5106933;28;20488;-85
2021/01/19 09:36:13;;;;;;;27.80;14.82;;;;;;;-0.04;72.25;98803.13;5090632;28;20031;-83
2021/01/19 09:38:40;;;;;;;20.88;14.32;;;;;;;0.90;70.15;98797.38;5110819;28;20023;-84
2021/01/19 09:41:07;;;;;;;22.17;14.02;;;;;;;0.51;70.17;98792.91;5110389;28;20118;-83
2021/01/19 09:43:33;;;;;;;20.65;13.48;;;;;;;0.75;69.43;98783.34;5112294;28;20119;-85
2021/01/19 09:46:04;;;;;;;27.38;13.30;;;;;;;0.37;69.83;98788.59;5106525;28;20020;-79
2021/01/19 09:48:31;;;;;;;22.10;14.32;;;;;;;0.08;71.37;98786.34;5090217;28;20481;-79
2021/01/19 09:51:04;;;;;;;30.00;13.20;;;;;;;1.40;68.65;98774.13;5088434;28;20073;-83
2021/01/19 09:53:34;;;;;;;26.35;14.55;;;;;;;1.15;67.43;98773.22;5090967;28;20114;-85
2021/01/19 09:56:16;;;;;;;24.60;13.38;;;;;;;0.79;68.93;98777.31;5088521;28;20016;-82
2021/01/19 09:58:42;;;;;;;24.33;15.23;;;;;;;0.51;69.33;98766.84;5090016;28;20033;-82
2021/01/19 10:01:07;;;;;;;31.10;16.63;;;;;;;0.36;70.08;98757.34;5089933;28;20013;-81
2021/01/19 10:03:33;;;;;;;;;;;;;;;0.37;70.52;98754.47;5089121;28;20388;-78
2021/01/19 10:06:07;;;;;;;24.98;14.93;;;;;;;0.45;70.64;98745.31;5089911;28;19920;-84
2021/01/19 10:08:33;;;;;;;23.98;15.60;;;;;;;0.38;70.82;98752.56;5089162;28;20024;-82
2021/01/19 10:10:59;;;;;;;33.25;16.38;;;;;;;0.73;70.49;98742.31;5091594;28;20558;-86
2021/01/19 10:13:28;;;;;;;24.00;13.38;;;;;;;0.51;70.54;98726.47;5096641;28;20111;-79
2021/01/19 10:15:59;;;;;;;20.92;13.77;;;;;;;0.70;70.52;98730.13;5097424;28;20088;-79
2021/01/19 10:18:24;;;;;;;31.88;14.30;;;;;;;1.26;68.96;98716.78;5099211;28;20016;-87
2021/01/19 10:20:50;;;;;;;24.63;14.40;;;;;;;1.90;67.60;98724.59;5092178;28;20464;-87
2021/01/19 10:23:25;;;;;;;21.35;13.07;;;;;;;1.40;67.44;98717.53;5095171;28;20365;-85
2021/01/19 10:26:13;;;;;;;30.88;16.02;;;;;;;1.68;66.53;98703.63;5104747;28;20500;-85
2021/01/19 10:28:41;;;;;;;32.80;16.75;;;;;;;1.24;67.72;98704.56;5101487;28;20035;-84
2021/01/19 10:31:27;;;;;;;26.27;16.90;;;;;;;1.30;68.71;98706.41;5098484;28;20020;-81
2021/01/19 10:33:58;;;;;;;24.80;15.60;;;;;;;1.38;67.40;98698.88;5109348;28;20384;-84
2021/01/19 10:36:26;;;;;;;34.08;15.93;;;;;;;1.65;66.79;98709.47;5108632;28;20123;-82
2021/01/19 10:38:52;;;;;;;27.70;15.82;;;;;;;1.94;66.65;98706.91;5108616;28;20105;-79
2021/01/19 10:41:28;;;;;;;24.08;15.88;;;;;;;1.75;66.47;98685.53;5115910;28;20053;-85
2021/01/19 10:43:54;;;;;;;;;;;;;;;2.63;63.96;98695.00;5112160;28;20027;-83
2021/01/19 10:46:25;;;;;;;34.08;16.60;;;;;;;1.67;66.34;98680.41;5110037;28;19912;-86
2021/01/19 10:49:00;;;;;;;32.33;18.55;;;;;;;1.41;67.71;98689.56;5094348;28;20028;-80
2021/01/19 10:51:27;;;;;;;49.72;19.73;;;;;;;1.83;69.90;98691.47;5089984;28;20485;-84
2021/01/19 10:54:02;;;;;;;29.40;17.35;;;;;;;2.75;67.15;98673.44;5088562;28;20135;-84
2021/01/19 10:56:27;;;;;;;40.30;16.42;;;;;;;3.18;64.15;98652.47;5089662;28;20542;-85
2021/01/19 10:58:53;;;;;;;29.80;16.48;;;;;;;2.79;63.82;98664.63;5090081;28;20028;-88
2021/01/19 11:01:18;;;;;;;;;;;;;;;3.13;62.96;98663.16;5093136;28;20028;-81
2021/01/19 11:03:43;;;;;;;29.20;16.00;;;;;;;2.48;65.30;98652.16;5120675;28;20356;-85
2021/01/19 11:06:09;;;;;;;;;;;;;;;1.39;68.18;98645.81;5106859;28;20053;-82
2021/01/19 11:08:34;;;;;;;31.58;14.93;;;;;;;1.30;69.46;98647.13;5102411;28;20360;-82
2021/01/19 11:10:59;;;;;;;;;;;;;;;1.46;69.32;98646.59;5096240;28;20036;-85
2021/01/19 11:13:25;;;;;;;25.50;14.10;;;;;;;2.12;67.68;98636.00;5105783;28;19923;-75
2021/01/19 11:15:51;;;;;;;32.63;17.02;;;;;;;2.42;66.66;98633.34;5109348;28;20508;-75
2021/01/19 11:18:16;;;;;;;;;;;;;;;2.52;66.33;98630.94;5108610;28;20027;-75
2021/01/19 11:20:45;;;;;;;25.08;15.98;;;;;;;2.29;66.33;98625.44;5106885;28;19918;-76
2021/01/19 11:23:11;;;;;;;25.85;15.77;;;;;;;2.51;65.94;98618.47;5099976;28;20016;-75
2021/01/19 11:25:36;;;;;;;;;;;;;;;3.44;63.48;98621.50;5100943;28;20051;-75
2021/01/19 11:28:01;;;;;;;28.23;16.75;;;;;;;2.67;64.60;98610.59;5107290;28;20394;-75
2021/01/19 11:30:27;;;;;;;;;;;;;;;2.56;65.40;98605.16;5108144;28;20279;-74
2021/01/19 11:32:52;;;;;;;28.25;14.20;;;;;;;2.60;66.08;98600.94;5105400;28;20368;-75
2021/01/19 11:35:18;;;;;;;28.45;17.63;;;;;;;2.07;67.33;98598.88;5088716;28;20543;-76